Time;durP1;ratioP1;P1;durP2;ratioP2;P2;SDS_P1;SDS_P2;PMS_P1;PMS_P2;Temp;Humidity;BMP_temperature;BMP_pressure;BME280_temperature;BME280_humidity;BME280_pressure;Samples;Min_cycle;Max_cycle;Signal;HPM_P1;HPM_P2
2022/03/20 00:04:26;;;;;;;16.00;10.80;;;23.80;42.00;;;;;;218690;1273;25295;-54
2022/03/20 00:09:30;;;;;;;19.20;11.50;;;23.90;41.50;;;;;;218649;1275;22650;-52
2022/03/20 00:14:34;;;;;;;16.00;11.60;;;23.90;41.30;;;;;;218899;1273;26515;-54
2022/03/20 00:19:37;;;;;;;19.00;10.90;;;24.00;41.10;;;;;;218890;1273;22644;-52
2022/03/20 00:24:42;;;;;;;16.30;10.70;;;24.00;41.40;;;;;;219895;1271;25425;-52
2022/03/20 00:29:46;;;;;;;15.90;9.30;;;24.00;41.20;;;;;;221011;1273;24216;-51
2022/03/20 00:34:49;;;;;;;17.20;10.40;;;24.00;40.90;;;;;;222204;1273;24312;-50
2022/03/20 00:39:53;;;;;;;16.30;10.40;;;24.10;40.70;;;;;;218929;1273;25584;-52
2022/03/20 00:44:57;;;;;;;14.50;9.80;;;24.10;40.90;;;;;;218734;1273;25335;-53
2022/03/20 00:50:03;;;;;;;15.40;10.40;;;24.10;40.90;;;;;;219054;1273;24324;-52
2022/03/20 00:55:07;;;;;;;18.40;9.70;;;24.10;40.40;;;;;;219488;1273;25392;-53
2022/03/20 01:00:11;;;;;;;15.50;9.90;;;24.20;40.90;;;;;;219907;1273;22914;-50
2022/03/20 01:05:17;;;;;;;18.00;10.20;;;24.30;40.50;;;;;;218659;1273;22604;-52
2022/03/20 01:10:30;;;;;;;18.00;10.70;;;24.20;40.50;;;;;;219623;1273;22708;-54
2022/03/20 01:15:34;;;;;;;14.20;9.70;;;24.20;40.40;;;;;;219030;1273;24352;-53
2022/03/20 01:20:37;;;;;;;13.80;9.50;;;24.10;40.60;;;;;;218762;1274;22540;-51
2022/03/20 01:25:42;;;;;;;13.70;9.70;;;24.00;40.90;;;;;;218622;1277;22789;-51
2022/03/20 01:30:47;;;;;;;13.10;9.50;;;23.80;41.30;;;;;;218637;1276;22579;-53
2022/03/20 01:35:52;;;;;;;18.80;11.00;;;23.70;41.20;;;;;;220088;1272;25596;-51
2022/03/20 01:40:56;;;;;;;15.90;10.00;;;23.60;41.30;;;;;;220934;1273;23044;-52
2022/03/20 01:45:59;;;;;;;14.50;9.60;;;23.50;41.40;;;;;;218871;1274;22594;-50
2022/03/20 01:51:03;;;;;;;16.40;10.10;;;23.40;41.70;;;;;;218938;1274;25330;-52
2022/03/20 01:56:07;;;;;;;13.50;9.60;;;23.20;42.30;;;;;;219396;1273;25366;-51
2022/03/20 02:01:10;;;;;;;13.90;9.30;;;23.20;42.50;;;;;;218645;1272;25576;-51
2022/03/20 02:06:15;;;;;;;16.70;9.90;;;23.10;42.70;;;;;;219521;1274;22618;-54
2022/03/20 02:11:20;;;;;;;14.40;9.60;;;23.00;42.40;;;;;;220566;1274;23514;-52
2022/03/20 02:16:23;;;;;;;21.10;12.30;;;22.90;42.60;;;;;;221831;1273;22715;-52
2022/03/20 02:21:42;;;;;;;13.60;9.00;;;22.80;42.70;;;;;;218991;1274;22761;-51
2022/03/20 02:26:45;;;;;;;11.20;8.60;;;22.80;42.80;;;;;;219520;1274;24233;-53
2022/03/20 02:31:50;;;;;;;14.50;9.40;;;22.70;43.00;;;;;;221153;1274;25283;-55
2022/03/20 02:36:58;;;;;;;14.40;9.50;;;22.70;43.10;;;;;;219246;1274;24342;-53
2022/03/20 02:42:05;;;;;;;14.20;9.70;;;22.60;43.10;;;;;;219540;1272;22646;-53
2022/03/20 02:47:08;;;;;;;13.80;8.90;;;22.60;43.60;;;;;;219587;1272;22550;-54
2022/03/20 02:52:12;;;;;;;14.60;9.20;;;22.50;43.30;;;;;;219103;1274;22537;-50
2022/03/20 02:57:16;;;;;;;12.60;8.30;;;22.50;43.30;;;;;;218941;1274;22696;-54
2022/03/20 03:02:20;;;;;;;11.70;8.10;;;22.80;43.00;;;;;;218698;1273;24405;-52
2022/03/20 03:07:24;;;;;;;14.50;8.20;;;23.10;42.30;;;;;;218748;1274;22617;-54
2022/03/20 03:12:27;;;;;;;14.70;8.90;;;23.40;42.20;;;;;;218796;1274;24237;-51
2022/03/20 03:17:31;;;;;;;15.40;9.50;;;23.60;41.60;;;;;;218839;1274;22532;-54
2022/03/20 03:22:36;;;;;;;12.40;8.40;;;23.60;41.80;;;;;;220977;1272;23052;-51
2022/03/20 03:27:39;;;;;;;11.70;8.40;;;23.70;41.00;;;;;;219854;1274;22531;-51
2022/03/20 03:32:43;;;;;;;12.70;8.10;;;23.80;40.90;;;;;;219468;1275;25323;-54
2022/03/20 03:37:47;;;;;;;16.40;9.30;;;23.80;41.40;;;;;;221682;1273;25387;-54
2022/03/20 03:42:51;;;;;;;15.60;9.60;;;23.90;40.90;;;;;;218656;1275;24282;-52
2022/03/20 03:47:56;;;;;;;11.90;8.20;;;24.00;40.80;;;;;;219066;1272;22557;-52
2022/03/20 03:52:59;;;;;;;12.60;8.60;;;24.00;40.50;;;;;;221454;1274;22568;-54
2022/03/20 03:58:03;;;;;;;11.30;8.30;;;24.00;40.50;;;;;;221965;1273;23945;-54
2022/03/20 04:03:07;;;;;;;11.40;8.20;;;24.10;40.60;;;;;;219180;1273;22543;-53
2022/03/20 04:08:15;;;;;;;11.80;7.70;;;24.10;40.20;;;;;;219169;1273;26505;-54
2022/03/20 04:13:19;;;;;;;11.60;7.90;;;24.10;40.50;;;;;;218757;1273;22574;-54
2022/03/20 04:18:22;;;;;;;11.10;7.70;;;24.10;40.20;;;;;;218614;1275;22557;-54
2022/03/20 04:23:45;;;;;;;13.50;8.20;;;24.10;40.20;;;;;;219006;1273;26557;-52
2022/03/20 04:28:52;;;;;;;11.60;7.70;;;24.10;40.20;;;;;;220565;1273;22819;-50
2022/03/20 04:33:56;;;;;;;11.50;7.40;;;24.20;40.30;;;;;;218599;1275;22835;-51
2022/03/20 04:39:01;;;;;;;14.30;8.10;;;24.20;40.10;;;;;;218706;1271;22774;-53
2022/03/20 04:44:07;;;;;;;12.00;7.90;;;24.30;40.40;;;;;;220090;1274;25535;-53
2022/03/20 05:00:10;;;;;;;10.90;7.70;;;24.30;40.10;;;;;;218807;1273;25392;-50
2022/03/20 05:05:14;;;;;;;13.60;8.40;;;24.30;40.70;;;;;;220222;1273;25517;-53
2022/03/20 05:15:41;;;;;;;13.50;8.40;;;24.00;40.60;;;;;;220830;1273;22571;-51
2022/03/20 05:20:52;;;;;;;12.80;7.70;;;23.90;40.60;;;;;;219739;1273;25411;-51
2022/03/20 05:25:57;;;;;;;10.00;7.70;;;23.80;40.50;;;;;;219829;1273;22551;-54
2022/03/20 05:31:03;;;;;;;11.00;8.10;;;23.60;40.90;;;;;;218828;1273;22615;-52
2022/03/20 05:36:06;;;;;;;10.80;7.70;;;23.50;41.30;;;;;;218923;1273;22554;-53
2022/03/20 05:46:32;;;;;;;11.90;7.90;;;23.20;41.60;;;;;;220696;1273;22650;-54
2022/03/20 05:51:37;;;;;;;11.50;7.90;;;23.10;41.90;;;;;;221324;1273;23313;-53
2022/03/20 06:02:04;;;;;;;12.70;7.90;;;23.00;42.10;;;;;;218841;1273;24387;-53
2022/03/20 06:07:08;;;;;;;10.90;8.00;;;22.90;42.20;;;;;;221236;1274;22612;-54
2022/03/20 06:12:12;;;;;;;11.40;8.10;;;22.80;42.30;;;;;;218958;1275;24811;-54
2022/03/20 06:17:17;;;;;;;12.40;7.60;;;22.70;42.50;;;;;;218603;1273;22571;-54
2022/03/20 06:22:21;;;;;;;10.30;7.30;;;22.70;42.60;;;;;;218669;1273;22547;-51
2022/03/20 06:27:25;;;;;;;11.70;8.30;;;22.70;42.70;;;;;;218771;1273;24318;-53
2022/03/20 06:32:28;;;;;;;12.00;7.60;;;22.60;42.80;;;;;;218775;1274;24316;-54
2022/03/20 06:37:37;;;;;;;11.50;7.40;;;22.50;42.80;;;;;;221180;1273;22534;-52
2022/03/20 06:42:42;;;;;;;10.40;7.70;;;22.50;42.90;;;;;;218976;1273;22569;-51
2022/03/20 06:47:47;;;;;;;14.20;8.10;;;22.50;42.70;;;;;;219081;1274;22885;-53
2022/03/20 06:52:50;;;;;;;12.80;7.50;;;22.50;43.00;;;;;;220234;1273;22557;-51
2022/03/20 06:57:54;;;;;;;9.80;7.00;;;22.70;42.60;;;;;;218869;1273;25699;-53
2022/03/20 07:03:00;;;;;;;9.50;6.70;;;23.00;42.00;;;;;;219405;1273;24369;-53
2022/03/20 07:08:09;;;;;;;;;;;23.30;41.50;;;;;;219187;1273;22593;-54
2022/03/20 07:18:36;;;;;;;11.00;6.90;;;23.70;41.00;;;;;;218807;1273;22620;-52
2022/03/20 07:23:42;;;;;;;12.10;7.10;;;23.80;40.80;;;;;;218519;1274;22552;-52
2022/03/20 07:34:08;;;;;;;10.20;7.20;;;23.90;40.40;;;;;;218809;1273;24312;-53
2022/03/20 07:39:12;;;;;;;10.00;7.10;;;23.90;39.90;;;;;;218758;1274;22577;-50
2022/03/20 07:44:16;;;;;;;10.30;7.10;;;24.00;39.90;;;;;;218897;1273;22645;-54
2022/03/20 07:49:22;;;;;;;10.50;7.40;;;24.00;39.80;;;;;;220864;1273;24500;-52
2022/03/20 07:54:26;;;;;;;11.00;7.30;;;24.10;39.60;;;;;;219002;1273;23846;-51
2022/03/20 07:59:31;;;;;;;10.20;7.50;;;24.10;39.60;;;;;;223187;1273;25090;-53
2022/03/20 08:04:34;;;;;;;10.40;7.20;;;24.00;40.00;;;;;;219522;1274;22557;-54
2022/03/20 08:09:38;;;;;;;10.10;7.60;;;24.10;39.60;;;;;;219973;1273;24426;-53
2022/03/20 08:14:42;;;;;;;11.20;7.50;;;23.90;39.80;;;;;;222175;1273;22537;-53
2022/03/20 08:19:48;;;;;;;12.10;7.70;;;23.90;40.10;;;;;;218529;1274;22645;-53
2022/03/20 08:24:59;;;;;;;12.40;6.90;;;23.80;40.40;;;;;;220141;1273;25472;-52
2022/03/20 08:30:04;;;;;;;19.40;7.80;;;23.70;40.60;;;;;;220799;1273;22573;-54
2022/03/20 08:35:09;;;;;;;10.20;6.30;;;23.60;40.90;;;;;;219038;1273;22601;-53
2022/03/20 08:40:18;;;;;;;11.80;6.70;;;23.60;41.00;;;;;;219602;1273;22613;-53
2022/03/20 08:45:24;;;;;;;14.30;6.90;;;23.50;41.50;;;;;;219797;1274;24223;-52
2022/03/20 08:50:28;;;;;;;11.80;7.60;;;23.50;41.30;;;;;;222280;1273;22535;-50
2022/03/20 08:55:33;;;;;;;13.80;7.50;;;23.50;41.50;;;;;;219253;1273;22582;-54
2022/03/20 09:00:39;;;;;;;13.00;7.10;;;23.40;41.80;;;;;;220120;1272;23699;-51
2022/03/20 09:05:45;;;;;;;18.40;6.80;;;23.40;41.90;;;;;;219405;1273;22711;-51
2022/03/20 09:10:50;;;;;;;19.10;6.70;;;23.50;42.30;;;;;;221760;1273;22542;-54
2022/03/20 09:21:19;;;;;;;10.80;6.40;;;23.40;42.00;;;;;;218532;1273;25561;-51
2022/03/20 09:26:22;;;;;;;11.70;6.80;;;23.40;41.90;;;;;;219654;1273;25265;-52
2022/03/20 09:31:31;;;;;;;10.70;6.50;;;23.30;42.00;;;;;;218903;1274;22714;-51
2022/03/20 09:36:37;;;;;;;10.80;6.90;;;23.30;43.00;;;;;;218982;1273;22626;-51
2022/03/20 09:41:41;;;;;;;12.80;6.90;;;23.30;43.00;;;;;;218797;1274;24441;-54
2022/03/20 09:46:46;;;;;;;10.70;6.90;;;23.30;43.20;;;;;;218382;1273;23258;-53
2022/03/20 09:51:52;;;;;;;11.00;7.00;;;23.30;43.10;;;;;;220660;1273;22637;-54
2022/03/20 09:57:29;;;;;;;13.60;7.20;;;23.30;43.70;;;;;;218541;1273;24404;-54
2022/03/20 10:02:33;;;;;;;17.10;7.20;;;23.30;43.50;;;;;;219137;1273;22554;-55
2022/03/20 10:07:43;;;;;;;15.70;8.00;;;23.30;43.80;;;;;;218933;1273;22550;-54
2022/03/20 10:12:52;;;;;;;14.10;7.70;;;23.30;43.70;;;;;;220593;1273;23292;-54
2022/03/20 10:18:17;;;;;;;13.50;8.10;;;23.40;44.30;;;;;;219147;1274;22543;-54
2022/03/20 10:23:31;;;;;;;12.70;7.10;;;23.40;44.40;;;;;;220090;1273;22541;-52
2022/03/20 10:29:01;;;;;;;12.50;7.90;;;23.40;44.30;;;;;;219096;1273;22646;-53
2022/03/20 10:34:11;;;;;;;15.30;7.70;;;23.40;44.30;;;;;;220777;1273;27701;-54
2022/03/20 10:39:47;;;;;;;12.30;6.90;;;23.50;43.60;;;;;;220078;1273;22601;-53
2022/03/20 10:45:16;;;;;;;14.20;7.70;;;23.50;44.00;;;;;;218778;1272;22544;-54
2022/03/20 10:50:36;;;;;;;16.30;7.40;;;23.60;43.10;;;;;;219138;1273;24167;-54
2022/03/20 10:56:18;;;;;;;15.50;8.20;;;23.60;43.30;;;;;;219445;1273;24438;-55
2022/03/20 11:01:43;;;;;;;20.20;7.70;;;23.60;43.20;;;;;;220413;1279;25488;-53
2022/03/20 11:06:54;;;;;;;18.10;7.50;;;23.60;43.20;;;;;;220293;1273;22556;-55
2022/03/20 11:11:59;;;;;;;23.10;8.60;;;23.70;42.90;;;;;;222349;1273;24244;-54
2022/03/20 11:17:06;;;;;;;14.30;8.40;;;23.70;42.90;;;;;;219665;1273;24174;-51
2022/03/20 11:22:13;;;;;;;19.50;7.80;;;23.70;43.00;;;;;;219409;1274;24370;-54
2022/03/20 11:27:41;;;;;;;13.80;7.40;;;23.90;42.50;;;;;;221356;1273;22572;-55
2022/03/20 11:32:50;;;;;;;13.60;7.20;;;23.90;42.30;;;;;;221317;1273;24333;-54
2022/03/20 11:37:58;;;;;;;11.30;7.00;;;23.80;42.50;;;;;;221698;1273;25526;-55
2022/03/20 11:43:11;;;;;;;16.00;6.90;;;23.90;42.60;;;;;;219673;1273;23959;-55
2022/03/20 11:48:20;;;;;;;14.00;7.70;;;23.90;42.90;;;;;;221211;1273;26726;-52
2022/03/20 11:53:28;;;;;;;18.90;7.20;;;24.00;42.30;;;;;;218695;1275;24325;-54
2022/03/20 11:58:40;;;;;;;12.20;6.80;;;24.00;42.10;;;;;;219088;1273;22546;-51
2022/03/20 12:04:15;;;;;;;11.20;6.40;;;24.10;42.10;;;;;;218671;1272;24450;-56
2022/03/20 12:09:57;;;;;;;16.10;8.00;;;24.10;42.10;;;;;;220448;1273;22560;-52
2022/03/20 12:15:13;;;;;;;13.70;7.90;;;24.10;41.70;;;;;;220098;1273;22537;-51
2022/03/20 12:20:51;;;;;;;19.00;8.70;;;24.10;41.80;;;;;;221730;1273;22617;-52
2022/03/20 12:25:56;;;;;;;15.10;7.20;;;24.10;41.60;;;;;;221168;1273;22655;-56
2022/03/20 12:31:02;;;;;;;11.50;7.80;;;24.20;40.70;;;;;;218738;1274;24214;-55
2022/03/20 12:36:28;;;;;;;26.50;9.20;;;24.00;38.80;;;;;;220074;1273;22641;-55
2022/03/20 12:41:34;;;;;;;16.10;8.70;;;24.00;37.40;;;;;;222096;1273;22557;-55
2022/03/20 12:46:46;;;;;;;16.80;7.80;;;23.90;36.30;;;;;;221405;1273;22396;-52
2022/03/20 12:51:52;;;;;;;18.00;8.00;;;24.00;37.10;;;;;;220477;1273;24205;-55
2022/03/20 12:57:01;;;;;;;11.30;7.20;;;24.00;37.10;;;;;;221792;1272;25328;-55
2022/03/20 13:02:06;;;;;;;13.00;8.20;;;24.00;37.50;;;;;;218721;1273;22565;-53
2022/03/20 13:07:23;;;;;;;12.70;7.70;;;24.00;37.70;;;;;;219110;1273;24217;-52
2022/03/20 13:12:27;;;;;;;14.20;7.20;;;24.00;37.80;;;;;;221548;1272;22889;-56
2022/03/20 13:17:34;;;;;;;14.00;7.40;;;24.00;37.80;;;;;;218746;1272;23004;-55
2022/03/20 13:22:38;;;;;;;12.80;7.40;;;23.90;37.90;;;;;;219573;1273;22705;-55
2022/03/20 13:27:47;;;;;;;11.80;7.40;;;23.90;38.00;;;;;;219807;1273;22537;-55
2022/03/20 13:32:56;;;;;;;12.60;7.20;;;23.90;38.00;;;;;;220619;1273;24387;-55
2022/03/20 13:38:02;;;;;;;13.10;7.70;;;23.90;38.00;;;;;;218928;1271;22538;-56
2022/03/20 13:43:06;;;;;;;12.80;7.90;;;23.90;38.00;;;;;;220473;1272;22571;-55
2022/03/20 13:48:13;;;;;;;12.10;7.10;;;23.90;38.00;;;;;;219031;1272;22554;-55
2022/03/20 13:53:26;;;;;;;13.60;8.10;;;23.90;38.10;;;;;;219618;1273;22569;-52
2022/03/20 13:58:36;;;;;;;13.30;7.30;;;23.80;38.00;;;;;;220013;1273;26246;-55
2022/03/20 14:03:54;;;;;;;11.70;6.50;;;23.80;38.10;;;;;;218929;1273;25576;-52
2022/03/20 14:08:58;;;;;;;11.20;6.70;;;23.80;38.30;;;;;;219498;1273;24236;-55
2022/03/20 14:14:08;;;;;;;13.00;7.40;;;23.70;37.90;;;;;;220313;1272;22596;-55
2022/03/20 14:19:12;;;;;;;9.60;6.70;;;23.70;38.00;;;;;;219975;1273;26465;-55
2022/03/20 14:24:19;;;;;;;9.30;6.40;;;23.60;38.00;;;;;;220335;1273;23653;-55
2022/03/20 14:40:42;;;;;;;17.00;7.80;;;23.50;38.00;;;;;;218938;1273;24297;-55
2022/03/20 14:45:45;;;;;;;13.20;6.90;;;23.50;37.70;;;;;;221060;1272;22560;-54
2022/03/20 14:50:50;;;;;;;12.70;6.10;;;23.50;37.10;;;;;;218706;1273;25264;-55
2022/03/20 14:55:54;;;;;;;13.40;6.80;;;23.50;36.60;;;;;;218710;1273;24580;-52
2022/03/20 15:00:57;;;;;;;17.70;6.80;;;23.50;37.60;;;;;;220389;1273;24297;-52
2022/03/20 15:06:03;;;;;;;15.20;6.60;;;23.50;38.30;;;;;;221025;1273;23449;-52
2022/03/20 15:11:26;;;;;;;11.90;6.50;;;23.50;39.40;;;;;;218800;1273;22545;-54
2022/03/20 15:16:30;;;;;;;14.20;6.00;;;23.40;40.20;;;;;;219293;1273;25479;-53
2022/03/20 15:21:34;;;;;;;14.40;6.70;;;23.40;39.90;;;;;;220251;1272;22569;-51
2022/03/20 15:26:50;;;;;;;15.70;6.20;;;23.40;39.50;;;;;;218924;1273;24272;-53
2022/03/20 15:31:57;;;;;;;14.50;6.10;;;23.40;39.70;;;;;;221720;1275;23170;-52
2022/03/20 15:37:03;;;;;;;13.60;6.90;;;23.40;40.00;;;;;;218757;1273;22574;-54
2022/03/20 15:42:07;;;;;;;14.50;6.60;;;23.40;39.70;;;;;;219825;1272;22580;-51
2022/03/20 15:47:15;;;;;;;12.90;6.60;;;23.40;40.00;;;;;;222122;1272;24270;-54
2022/03/20 15:52:22;;;;;;;15.60;7.00;;;23.40;39.90;;;;;;219787;1273;25366;-52
2022/03/20 15:57:42;;;;;;;14.40;6.70;;;23.30;40.00;;;;;;218673;1273;24384;-54
2022/03/20 16:02:50;;;;;;;13.90;6.60;;;23.20;40.10;;;;;;218628;1273;25360;-53
2022/03/20 16:08:05;;;;;;;10.40;5.50;;;23.10;39.20;;;;;;219693;1271;22532;-53
2022/03/20 16:13:17;;;;;;;14.30;7.30;;;23.10;39.50;;;;;;221213;1273;22562;-52
2022/03/20 16:18:21;;;;;;;13.70;6.90;;;23.20;39.50;;;;;;220002;1273;22611;-53
2022/03/20 16:28:49;;;;;;;10.50;5.90;;;23.10;39.00;;;;;;219287;1273;22556;-54
2022/03/20 16:34:08;;;;;;;12.10;6.20;;;23.00;38.90;;;;;;218889;1273;24096;-53
2022/03/20 16:39:12;;;;;;;13.10;6.10;;;23.00;39.10;;;;;;219285;1273;22551;-53
2022/03/20 16:44:26;;;;;;;9.40;5.50;;;23.00;38.70;;;;;;218950;1276;24845;-54
2022/03/20 16:49:32;;;;;;;10.60;6.10;;;23.00;38.60;;;;;;219117;1273;307875;-53
2022/03/20 16:54:52;;;;;;;8.70;5.90;;;23.00;38.60;;;;;;219274;1273;23048;-54
2022/03/20 16:59:56;;;;;;;16.10;7.00;;;23.00;38.30;;;;;;219142;1273;25357;-53
2022/03/20 17:05:27;;;;;;;11.30;6.00;;;23.10;38.40;;;;;;219133;1273;22599;-55
2022/03/20 17:10:40;;;;;;;12.30;6.20;;;23.00;38.00;;;;;;219265;1276;22546;-55
2022/03/20 17:15:57;;;;;;;19.60;6.70;;;23.00;38.50;;;;;;219051;1273;22541;-56
2022/03/20 17:21:14;;;;;;;23.90;7.50;;;23.10;37.90;;;;;;219170;1273;24236;-57
2022/03/20 17:26:23;;;;;;;16.60;6.10;;;23.20;38.50;;;;;;219296;1273;24233;-58
2022/03/20 17:31:31;;;;;;;17.50;6.90;;;23.20;38.70;;;;;;219791;1273;22694;-59
2022/03/20 17:36:46;;;;;;;21.10;6.30;;;23.20;39.60;;;;;;219190;1273;22752;-58
2022/03/20 17:41:56;;;;;;;20.90;7.00;;;23.20;39.10;;;;;;219023;1275;25542;-58
2022/03/20 17:47:31;;;;;;;18.70;6.80;;;23.10;39.10;;;;;;219131;1273;23028;-59
2022/03/20 17:52:37;;;;;;;17.30;7.30;;;23.00;38.20;;;;;;219151;1273;23980;-54
2022/03/20 17:58:02;;;;;;;16.90;6.80;;;23.00;38.60;;;;;;219163;1273;23720;-57
2022/03/20 18:08:46;;;;;;;20.40;9.60;;;23.00;39.10;;;;;;219412;1273;22551;-58
2022/03/20 18:13:53;;;;;;;23.80;9.90;;;23.00;38.30;;;;;;219622;1274;22562;-57
2022/03/20 18:19:03;;;;;;;22.60;11.50;;;22.90;38.30;;;;;;219618;1273;22639;-58
2022/03/20 18:24:18;;;;;;;25.00;12.20;;;22.90;38.20;;;;;;219495;1273;24301;-58
2022/03/20 18:29:33;;;;;;;30.40;13.40;;;22.90;38.70;;;;;;219243;1273;22626;-59
2022/03/20 18:34:41;;;;;;;30.90;14.90;;;22.90;39.00;;;;;;222684;1272;22534;-54
2022/03/20 18:39:46;;;;;;;29.00;16.10;;;22.80;38.80;;;;;;219267;1273;22567;-57
2022/03/20 18:45:25;;;;;;;29.30;16.10;;;22.80;39.30;;;;;;219356;1273;25359;-59
2022/03/20 18:50:42;;;;;;;35.40;14.80;;;22.80;39.20;;;;;;219397;1274;25627;-54
2022/03/20 18:56:02;;;;;;;34.10;16.50;;;22.80;40.50;;;;;;219227;1273;24237;-59
2022/03/20 19:01:29;;;;;;;32.00;15.30;;;22.80;40.60;;;;;;219176;1273;24369;-55
2022/03/20 19:06:55;;;;;;;34.10;15.80;;;22.80;41.00;;;;;;219285;1275;25422;-54
2022/03/20 19:12:04;;;;;;;57.30;16.50;;;22.90;41.70;;;;;;219376;1274;22545;-63
2022/03/20 19:17:11;;;;;;;31.40;15.10;;;22.90;41.10;;;;;;219276;1273;24435;-55
2022/03/20 19:22:15;;;;;;;26.70;16.00;;;22.80;40.90;;;;;;219094;1274;22544;-56
2022/03/20 19:27:29;;;;;;;37.40;16.90;;;22.80;41.80;;;;;;219287;1274;22731;-59
2022/03/20 19:32:37;;;;;;;37.00;15.90;;;22.80;43.00;;;;;;219489;1273;25348;-55
2022/03/20 19:43:10;;;;;;;30.50;14.80;;;22.70;44.30;;;;;;219118;1274;25254;-55
2022/03/20 19:48:20;;;;;;;22.60;14.70;;;22.70;44.80;;;;;;219044;1274;22559;-55
2022/03/20 19:53:29;;;;;;;32.80;15.70;;;22.70;45.70;;;;;;219240;1273;22542;-55
2022/03/20 19:58:39;;;;;;;25.60;16.50;;;22.70;46.10;;;;;;218982;1274;22589;-54
2022/03/20 20:03:48;;;;;;;28.00;15.80;;;22.60;45.60;;;;;;219106;1274;25526;-55
2022/03/20 20:09:11;;;;;;;26.00;15.40;;;22.50;46.40;;;;;;219270;1274;24266;-52
2022/03/20 20:19:53;;;;;;;33.00;15.90;;;22.80;46.80;;;;;;219294;1274;24248;-51
2022/03/20 20:25:08;;;;;;;30.10;15.00;;;23.00;46.40;;;;;;219101;1274;24284;-50
2022/03/20 20:30:15;;;;;;;36.20;16.00;;;23.00;46.90;;;;;;219417;1274;22576;-54
2022/03/20 20:35:24;;;;;;;33.50;14.30;;;23.20;48.30;;;;;;219424;1274;25330;-54
2022/03/20 20:40:35;;;;;;;33.00;15.30;;;23.40;47.70;;;;;;219494;1273;22637;-50
2022/03/20 20:45:42;;;;;;;39.00;16.10;;;23.60;47.00;;;;;;219503;1274;24317;-55
2022/03/20 20:50:54;;;;;;;31.20;14.50;;;23.70;46.30;;;;;;219272;1274;22558;-55
2022/03/20 20:56:01;;;;;;;30.70;14.70;;;23.70;45.80;;;;;;219409;1274;26495;-55
2022/03/20 21:01:08;;;;;;;36.10;14.70;;;23.80;45.20;;;;;;219161;1274;22557;-54
2022/03/20 21:06:19;;;;;;;30.10;15.40;;;23.90;44.90;;;;;;218908;1273;25489;-52
2022/03/20 21:11:25;;;;;;;32.40;14.70;;;23.90;44.40;;;;;;219088;1273;22538;-51
2022/03/20 21:16:34;;;;;;;30.40;13.40;;;23.90;44.00;;;;;;219370;1273;22660;-56
2022/03/20 21:21:43;;;;;;;24.00;13.60;;;23.90;43.90;;;;;;219282;1274;22740;-55
2022/03/20 21:26:56;;;;;;;46.00;15.40;;;23.70;43.80;;;;;;219477;1274;24304;-53
2022/03/20 21:32:03;;;;;;;25.40;13.60;;;23.80;46.70;;;;;;219433;1273;26677;-54
2022/03/20 21:37:11;;;;;;;30.40;15.10;;;23.90;45.40;;;;;;219458;1274;25612;-55
2022/03/20 21:42:17;;;;;;;27.20;14.90;;;24.00;44.80;;;;;;219123;1274;26071;-56
2022/03/20 21:47:21;;;;;;;27.80;12.40;;;24.10;45.60;;;;;;219154;1273;25392;-53
2022/03/20 21:52:25;;;;;;;27.80;13.10;;;24.10;46.80;;;;;;219404;1274;24291;-56
2022/03/20 21:57:29;;;;;;;22.30;13.50;;;24.00;46.30;;;;;;219203;1275;22525;-55
2022/03/20 22:02:34;;;;;;;21.40;13.10;;;23.90;46.20;;;;;;219177;1273;22554;-55
2022/03/20 22:07:55;;;;;;;26.20;12.40;;;23.70;46.10;;;;;;219351;1273;25341;-55
2022/03/20 22:13:05;;;;;;;22.20;12.80;;;23.60;46.80;;;;;;219049;1273;22606;-55
2022/03/20 22:18:15;;;;;;;;;;;23.50;47.40;;;;;;219186;1273;25471;-54
2022/03/20 22:23:19;;;;;;;19.00;11.80;;;23.40;47.60;;;;;;219264;1273;24269;-55
2022/03/20 22:28:23;;;;;;;27.20;12.40;;;23.30;47.60;;;;;;219107;1273;24344;-54
2022/03/20 22:33:32;;;;;;;25.70;14.10;;;23.20;47.70;;;;;;219201;1273;24309;-55
2022/03/20 22:38:36;;;;;;;22.50;13.30;;;23.10;47.70;;;;;;219003;1273;22584;-55
2022/03/20 22:43:43;;;;;;;24.50;13.40;;;23.10;47.90;;;;;;219172;1273;25413;-53
2022/03/20 22:54:15;;;;;;;28.20;12.20;;;23.00;47.80;;;;;;218975;1273;25254;-52
2022/03/20 22:59:21;;;;;;;18.90;12.20;;;23.00;48.40;;;;;;219247;1273;24247;-55
2022/03/20 23:04:26;;;;;;;20.40;10.70;;;23.00;48.50;;;;;;219240;1273;22886;-55
2022/03/20 23:09:30;;;;;;;20.40;11.60;;;22.90;48.70;;;;;;219293;1273;26508;-52
2022/03/20 23:14:34;;;;;;;21.20;11.90;;;22.80;49.10;;;;;;219238;1273;24299;-54
2022/03/20 23:19:38;;;;;;;17.40;10.80;;;22.80;48.90;;;;;;219296;1273;22542;-55
2022/03/20 23:24:42;;;;;;;28.00;11.20;;;22.80;49.00;;;;;;219555;1273;23048;-55
2022/03/20 23:29:47;;;;;;;25.80;11.80;;;22.80;49.10;;;;;;219272;1273;25372;-54
2022/03/20 23:34:50;;;;;;;18.70;11.10;;;22.80;49.80;;;;;;219322;1273;22604;-54
2022/03/20 23:39:54;;;;;;;23.70;12.50;;;22.70;49.60;;;;;;219471;1273;25412;-55
2022/03/20 23:44:57;;;;;;;20.90;12.10;;;22.70;49.30;;;;;;219232;1273;25493;-54
2022/03/20 23:50:03;;;;;;;18.40;10.70;;;22.70;49.70;;;;;;219206;1273;22537;-54
2022/03/20 23:55:08;;;;;;;19.50;11.30;;;22.60;49.60;;;;;;219437;1273;25257;-52
